Nearby METAR Reports

KLNK - Lincoln, Nebraska, USA
Distance from station: WNW 8mi, 13km
Updated: Mon, 11-Dec-2023 7:54am CST
Clear
Clear
 Wind from W
Wind: W 3 mph , 6 km/h
Temperature: 21°F , -6°C
Dew Point: 16°F , -9°C
Humidity: 80%
Barometer: 30.10 inHg , 1019.3 hPa
Clouds: Clear
Visibility: 10 miles , 16 km
2023/12/11 13:54 KLNK 111354Z 27003KT 10SM CLR M06/M09 A3010 RMK AO2 SLP208 T10611089
KAHQ - Wahoo, Nebraska, USA
Distance from station: N 31mi, 49km
Updated: Mon, 11-Dec-2023 8:35am CST
Clear
Clear
 Wind from calm
Wind: Calm
Temperature: 25°F , -4°C
Dew Point: 21°F , -6°C
Humidity: 86%
Barometer: 30.09 inHg , 1019 hPa
Clouds: Clear
Visibility: 10 miles , 16 km
2023/12/11 14:35 KAHQ 111435Z AUTO 00000KT 10SM CLR M04/M06 A3009 RMK AO2 T10411058
 
KBIE - Beatrice Municip, Nebraska, USA
Distance from station: S 36mi, 57km
Updated: Mon, 11-Dec-2023 8:35am CST
Clear
Clear
 Wind from calm
Wind: Calm
Temperature: 23°F , -5°C
Dew Point: 19°F , -7°C
Humidity: 86%
Barometer: 30.11 inHg , 1019.6 hPa
Clouds: Clear
Visibility: 10 miles , 16 km
2023/12/11 14:35 KBIE 111435Z AUTO 00000KT 10SM CLR M05/M07 A3011 RMK AO2 T10461070
KMLE - Omaha/Millard, Nebraska, USA
Distance from station: NE 39mi, 63km
Updated: Mon, 11-Dec-2023 8:35am CST
Clear
Clear
 Wind from WNW
Wind: WNW 5 mph , 7 km/h
Temperature: 27°F , -3°C
Wind Chill: 21°F , -6°C
Dew Point: 21°F , -6°C
Humidity: 80%
Barometer: 30.09 inHg , 1019 hPa
Clouds: Clear
Visibility: 10 miles , 16 km
2023/12/11 14:35 KMLE 111435Z AUTO 30004KT 10SM CLR M03/M06 A3009 RMK AO2 T10301056
 
KPMV - Plattsmouth Muni, Nebraska, USA
Distance from station: ENE 39mi, 63km
Updated: Mon, 11-Dec-2023 8:35am CST
Clear
Clear
 Wind from WNW
Wind: WNW 5 mph , 7 km/h
Temperature: 25°F , -4°C
Wind Chill: 19°F , -7°C
Dew Point: 21°F , -6°C
Humidity: 86%
Barometer: 30.08 inHg , 1018.6 hPa
Clouds: Clear
Visibility: 10 miles , 16 km
2023/12/11 14:35 KPMV 111435Z AUTO 30004KT 10SM CLR M04/M06 A3008 RMK AO2 T10361056
KAFK - Nebraska City, Nebraska, USA
Distance from station: ESE 43mi, 69km
Updated: Mon, 11-Dec-2023 8:35am CST
Clear
Clear
 Wind from NW
Wind: NW 7 mph , 11 km/h
Temperature: 25°F , -4°C
Wind Chill: 17°F , -8°C
Dew Point: 21°F , -6°C
Humidity: 86%
Barometer: 30.09 inHg , 1019 hPa
Clouds: Clear
Visibility: 10 miles , 16 km
2023/12/11 14:35 KAFK 111435Z AUTO 31006KT 10SM CLR M04/M06 A3009 RMK AO2 T10371063
 
KOFF - Offutt Afb/Belle, Nebraska, USA
Distance from station: ENE 44mi, 70km
Updated: Mon, 11-Dec-2023 5:55am CST
NOT Current
Clear
Clear
 Wind from WNW
Wind: WNW 5 mph , 7 km/h
Temperature: 27°F , -3°C
Wind Chill: 21°F , -6°C
Dew Point: 19°F , -7°C
Humidity: 74%
Barometer: 30.03 inHg , 1016.9 hPa
Clouds: Clear
Visibility: 10 miles , 16 km
2023/12/11 11:55 KOFF 111155Z AUTO 30004KT 10SM CLR M03/M07 A3003 RMK AO2 SLP183 T10351066 11001 21056 52014 $
KFET - Fremont Muni Arp, Nebraska, USA
Distance from station: N 46mi, 74km
Updated: Mon, 11-Dec-2023 8:35am CST
Clear
Clear
 Wind from WNW
Wind: WNW 5 mph , 7 km/h
Temperature: 19°F , -7°C
Wind Chill: 12°F , -11°C
Dew Point: 16°F , -9°C
Humidity: 86%
Barometer: 30.09 inHg , 1019 hPa
Clouds: Clear
Visibility: 10 miles , 16 km
2023/12/11 14:35 KFET 111435Z AUTO 29004KT 10SM CLR M07/M09 A3009 RMK AO2 T10691095
 
KBTA - Blair Muni, Nebraska, USA
Distance from station: NNE 51mi, 82km
Updated: Mon, 11-Dec-2023 8:35am CST
Clear
Clear
 Wind from calm
Wind: Calm
Temperature: 23°F , -5°C
Dew Point: 21°F , -6°C
Humidity: 93%
Barometer: 30.06 inHg , 1017.9 hPa
Clouds: Clear
Visibility: 10 miles , 16 km
2023/12/11 14:35 KBTA 111435Z AUTO 00000KT 10SM CLR M05/M06 A3006 RMK AO2 T10481064
KJYR - York, Nebraska, USA
Distance from station: W 52mi, 84km
Updated: Mon, 11-Dec-2023 8:35am CST
Clear
Clear
 Wind from W
Wind: W 5 mph , 7 km/h
Temperature: 23°F , -5°C
Wind Chill: 17°F , -8°C
Dew Point: 18°F , -8°C
Humidity: 80%
Barometer: 30.08 inHg , 1018.6 hPa
Clouds: Clear
Visibility: 10 miles , 16 km
2023/12/11 14:35 KJYR 111435Z AUTO 26004KT 10SM CLR M05/M08 A3008 RMK AO2
 
KOMA - Omaha/Eppley, Nebraska, USA
Distance from station: NE 53mi, 85km
Updated: Mon, 11-Dec-2023 7:52am CST
Clear
Clear
 Wind from N
Wind: N 3 mph , 6 km/h
Temperature: 19°F , -7°C
Dew Point: 18°F , -8°C
Humidity: 93%
Barometer: 30.09 inHg , 1019 hPa
Clouds: Clear
Visibility: 10 miles , 16 km
2023/12/11 13:52 KOMA 111352Z 35003KT 10SM CLR M07/M08 A3009 RMK AO2 SLP200 T10671078
KOLU - Columbus Muni, Nebraska, USA
Distance from station: NW 58mi, 93km
Updated: Mon, 11-Dec-2023 7:56am CST
Clear
Clear
 Wind from WSW
Wind: WSW 3 mph , 6 km/h
Temperature: 18°F , -8°C
Dew Point: 14°F , -10°C
Humidity: 86%
Barometer: 30.08 inHg , 1018.6 hPa
Clouds: Clear
Visibility: 10 miles , 16 km
2023/12/11 13:56 KOLU 111356Z AUTO 24003KT 10SM CLR M08/M10 A3008 RMK AO2 SLP209 T10831100 FZRANO